Time;durP1;ratioP1;P1;durP2;ratioP2;P2;SDS_P1;SDS_P2;PMS_P1;PMS_P2;Temp;Humidity;BMP_temperature;BMP_pressure;BME280_temperature;BME280_humidity;BME280_pressure;Samples;Min_cycle;Max_cycle;Signal;HPM_P1;HPM_P2
2023/07/03 00:02:09;;;;;;;26.43;23.73;;;;;;;18.57;100.00;92526.50;5024208;28;20196;-74
2023/07/03 00:04:35;;;;;;;28.37;25.27;;;;;;;18.56;100.00;92527.63;5009637;28;20237;-76
2023/07/03 00:07:05;;;;;;;31.13;24.40;;;;;;;18.66;100.00;92539.66;5010541;28;20227;-76
2023/07/03 00:09:31;;;;;;;26.53;23.93;;;;;;;18.67;100.00;92536.66;5012740;28;20236;-75
2023/07/03 00:11:57;;;;;;;28.33;25.43;;;;;;;18.65;100.00;92532.78;5009873;28;20270;-76
2023/07/03 00:14:22;;;;;;;29.20;25.63;;;;;;;18.66;100.00;92540.41;5008541;28;20221;-75
2023/07/03 00:16:48;;;;;;;31.07;25.57;;;;;;;18.61;100.00;92537.22;5013503;28;20199;-74
2023/07/03 00:19:13;;;;;;;32.00;28.50;;;;;;;18.48;100.00;92531.13;5012876;28;20191;-73
2023/07/03 00:21:43;;;;;;;29.63;25.83;;;;;;;18.48;100.00;92531.13;5009530;28;20185;-75
2023/07/03 00:24:12;;;;;;;28.13;25.17;;;;;;;18.54;100.00;92531.66;5007499;28;20200;-75
2023/07/03 00:26:39;;;;;;;28.97;26.17;;;;;;;18.59;100.00;92534.91;5013342;28;20192;-74
2023/07/03 00:29:05;;;;;;;28.63;25.50;;;;;;;18.61;100.00;92534.56;5010346;28;20215;-75
2023/07/03 00:31:31;;;;;;;28.53;25.47;;;;;;;18.41;100.00;92516.91;5009160;28;20229;-73
2023/07/03 00:33:56;;;;;;;24.70;22.23;;;;;;;18.37;100.00;92508.03;5012036;28;20185;-75
2023/07/03 00:36:22;;;;;;;28.33;25.53;;;;;;;18.50;100.00;92546.66;5009519;28;20229;-74
2023/07/03 00:38:47;;;;;;;29.77;26.70;;;;;;;18.55;100.00;92543.81;5020137;28;20187;-75
2023/07/03 00:41:13;;;;;;;28.93;26.07;;;;;;;18.56;100.00;92545.34;5018377;28;20259;-74
2023/07/03 00:43:42;;;;;;;27.00;24.17;;;;;;;18.39;100.00;92546.31;5013818;28;20224;-74
2023/07/03 00:46:08;;;;;;;27.43;24.63;;;;;;;18.39;100.00;92537.59;5012853;28;20259;-74
2023/07/03 00:48:35;;;;;;;28.23;25.23;;;;;;;18.56;100.00;92546.13;5013803;28;20206;-75
2023/07/03 00:51:01;;;;;;;28.93;25.83;;;;;;;18.48;100.00;92554.13;5012823;28;20262;-74
2023/07/03 00:53:26;;;;;;;29.10;26.00;;;;;;;18.45;100.00;92560.09;5017420;28;20189;-74
2023/07/03 00:55:52;;;;;;;29.17;26.13;;;;;;;18.52;100.00;92555.03;5017483;28;20315;-74
2023/07/03 00:58:17;;;;;;;30.37;27.37;;;;;;;18.47;100.00;92552.59;5015344;28;20199;-74
2023/07/03 01:00:51;;;;;;;29.73;26.37;;;;;;;18.45;100.00;92560.88;5013131;28;20232;-74
2023/07/03 01:03:32;;;;;;;28.80;25.70;;;;;;;18.43;100.00;92551.69;5013490;28;20381;-74
2023/07/03 01:06:00;;;;;;;33.17;27.53;;;;;;;18.59;100.00;92550.75;5013012;28;20236;-74
2023/07/03 01:08:26;;;;;;;30.43;25.70;;;;;;;18.62;100.00;92559.91;5016923;28;20361;-75
2023/07/03 01:10:51;;;;;;;31.53;26.33;;;;;;;18.56;100.00;92563.84;5013406;28;20229;-75
2023/07/03 01:13:19;;;;;;;27.67;24.67;;;;;;;18.48;100.00;92559.44;5012451;28;20202;-74
2023/07/03 01:15:45;;;;;;;29.63;26.43;;;;;;;18.52;100.00;92558.44;5018911;28;20248;-74
2023/07/03 01:18:12;;;;;;;31.87;27.47;;;;;;;18.49;100.00;92561.00;5017177;28;21900;-73
2023/07/03 01:21:07;;;;;;;30.70;27.50;;;;;;;18.38;100.00;92544.00;5012202;28;20230;-75
2023/07/03 01:23:51;;;;;;;29.07;25.60;;;;;;;18.49;100.00;92561.75;5021858;28;20224;-74
2023/07/03 01:26:18;;;;;;;29.07;25.87;;;;;;;18.46;100.00;92551.81;5012427;28;20235;-74
2023/07/03 01:28:46;;;;;;;28.23;25.23;;;;;;;18.44;100.00;92553.25;5019055;28;20243;-74
2023/07/03 01:31:14;;;;;;;33.00;26.63;;;;;;;18.39;100.00;92559.53;5016576;28;20224;-74
2023/07/03 01:33:44;;;;;;;29.90;26.67;;;;;;;18.41;100.00;92559.22;5012844;28;20189;-74
2023/07/03 01:36:12;;;;;;;28.53;25.53;;;;;;;18.33;100.00;92552.09;5025185;28;20216;-75
2023/07/03 01:38:41;;;;;;;29.93;26.33;;;;;;;18.36;100.00;92557.50;5016890;28;20214;-75
2023/07/03 01:41:08;;;;;;;30.43;25.40;;;;;;;18.30;100.00;92556.19;5026202;28;20235;-74
2023/07/03 01:43:35;;;;;;;30.47;26.47;;;;;;;18.30;100.00;92547.47;5013412;28;20210;-75
2023/07/03 01:46:01;;;;;;;30.93;25.40;;;;;;;18.23;100.00;92539.28;5012141;28;20216;-75
2023/07/03 01:48:31;;;;;;;31.53;27.50;;;;;;;18.33;100.00;92557.38;5017325;28;20222;-75
2023/07/03 01:50:56;;;;;;;30.37;26.00;;;;;;;18.34;100.00;92549.13;5011608;28;20247;-75
2023/07/03 01:53:32;;;;;;;29.70;25.47;;;;;;;18.19;100.00;92546.34;5015663;28;20187;-75
2023/07/03 01:56:10;;;;;;;31.17;26.63;;;;;;;18.33;100.00;92552.09;5000090;28;20251;-75
2023/07/03 01:58:49;;;;;;;28.47;25.37;;;;;;;18.32;100.00;92556.59;5015203;28;20233;-75
2023/07/03 02:01:31;;;;;;;31.17;26.93;;;;;;;18.36;100.00;92554.09;5011910;28;20248;-75
2023/07/03 02:04:06;;;;;;;28.60;25.00;;;;;;;18.31;100.00;92554.28;5012678;28;20226;-76
2023/07/03 02:06:44;;;;;;;29.03;25.87;;;;;;;18.23;100.00;92550.63;5011381;28;20267;-75
2023/07/03 02:09:11;;;;;;;28.70;25.60;;;;;;;18.24;100.00;92565.38;5018577;28;20281;-75
2023/07/03 02:11:37;;;;;;;29.93;25.77;;;;;;;18.30;100.00;92558.03;5012181;28;20193;-76
2023/07/03 02:14:03;;;;;;;29.73;26.37;;;;;;;18.32;100.00;92559.25;5010724;28;20196;-76
2023/07/03 02:16:31;;;;;;;30.07;26.23;;;;;;;18.29;100.00;92562.53;5023822;28;20228;-74
2023/07/03 02:19:00;;;;;;;29.23;26.13;;;;;;;18.39;100.00;92556.88;5015871;28;20188;-75
2023/07/03 02:21:27;;;;;;;28.00;24.70;;;;;;;18.41;100.00;92562.59;5011602;28;20224;-73
2023/07/03 02:23:53;;;;;;;27.30;24.17;;;;;;;18.38;100.00;92568.53;5014832;28;20187;-75
2023/07/03 02:26:18;;;;;;;29.27;25.97;;;;;;;18.42;100.00;92571.31;5011334;28;20469;-75
2023/07/03 02:28:43;;;;;;;27.57;23.57;;;;;;;18.34;100.00;92564.22;5012527;28;20219;-74
2023/07/03 02:31:09;;;;;;;27.33;24.43;;;;;;;18.26;100.00;92550.00;5011411;28;20239;-74
2023/07/03 02:33:34;;;;;;;27.40;23.73;;;;;;;18.30;100.00;92569.41;5044442;28;20202;-74
2023/07/03 02:36:04;;;;;;;31.00;24.93;;;;;;;18.31;100.00;92570.94;5020078;28;20288;-74
2023/07/03 02:38:29;;;;;;;27.13;24.23;;;;;;;18.35;100.00;92571.06;5013832;28;20195;-74
2023/07/03 02:40:55;;;;;;;27.37;24.47;;;;;;;18.48;100.00;92583.22;5020926;28;20254;-75
2023/07/03 02:43:20;;;;;;;27.40;24.40;;;;;;;18.61;100.00;92590.09;5015296;28;20188;-75
2023/07/03 02:45:46;;;;;;;27.57;24.57;;;;;;;18.70;100.00;92582.84;5013255;28;20267;-75
2023/07/03 02:48:11;;;;;;;28.03;24.43;;;;;;;18.59;100.00;92593.06;5015727;28;20234;-75
2023/07/03 02:50:37;;;;;;;28.63;25.30;;;;;;;18.61;100.00;92592.75;5011133;28;20239;-74
2023/07/03 02:53:03;;;;;;;28.73;25.00;;;;;;;18.60;100.00;92589.31;5011712;28;20186;-74
2023/07/03 02:55:28;;;;;;;28.73;24.77;;;;;;;18.48;100.00;92586.66;5020661;28;20225;-74
2023/07/03 02:57:54;;;;;;;28.23;25.17;;;;;;;18.63;100.00;92582.63;5008268;28;20204;-75
2023/07/03 03:00:20;;;;;;;27.87;24.50;;;;;;;18.59;100.00;92590.41;5011030;28;20224;-75
2023/07/03 03:02:47;;;;;;;30.03;26.17;;;;;;;18.51;100.00;92598.44;5010863;28;20192;-75
2023/07/03 03:05:13;;;;;;;26.80;23.77;;;;;;;18.47;100.00;92600.19;5016238;28;20231;-74
2023/07/03 03:07:38;;;;;;;29.37;25.90;;;;;;;18.40;100.00;92599.94;5015619;28;20201;-74
2023/07/03 03:10:04;;;;;;;27.70;24.70;;;;;;;18.42;100.00;92574.75;5015207;28;20255;-75
2023/07/03 03:12:30;;;;;;;29.70;23.97;;;;;;;18.60;100.00;92599.88;5010691;28;20180;-75
2023/07/03 03:14:55;;;;;;;28.50;25.40;;;;;;;18.43;100.00;92557.78;5010465;28;20256;-75
2023/07/03 03:17:21;;;;;;;29.37;25.00;;;;;;;18.75;100.00;92601.16;5017423;28;20191;-75
2023/07/03 03:19:46;;;;;;;29.97;24.63;;;;;;;18.71;100.00;92601.03;5010527;28;20237;-74
2023/07/03 03:22:11;;;;;;;27.53;24.57;;;;;;;18.49;100.00;92577.59;5013209;28;20512;-75
2023/07/03 03:24:37;;;;;;;27.67;24.30;;;;;;;18.66;100.00;92595.19;5010335;28;20237;-75
2023/07/03 03:27:06;;;;;;;27.43;24.53;;;;;;;18.54;100.00;92584.56;5010546;28;20198;-74
2023/07/03 03:29:41;;;;;;;28.30;24.90;;;;;;;18.62;100.00;92596.91;5037082;28;20224;-75
2023/07/03 03:32:07;;;;;;;25.87;23.13;;;;;;;18.73;100.00;92598.03;5012183;28;20184;-75
2023/07/03 03:34:34;;;;;;;29.00;24.33;;;;;;;18.74;100.00;92599.59;5018612;28;20305;-75
2023/07/03 03:36:59;;;;;;;27.23;23.27;;;;;;;18.65;100.00;92583.03;5011252;28;20193;-75
2023/07/03 03:39:25;;;;;;;29.13;24.23;;;;;;;18.61;100.00;92600.66;5018434;28;20172;-74
2023/07/03 03:41:50;;;;;;;30.73;24.93;;;;;;;18.79;100.00;92602.03;5010259;28;20208;-75
2023/07/03 03:44:16;;;;;;;27.37;23.57;;;;;;;18.79;100.00;92612.59;5018425;28;20189;-74
2023/07/03 03:46:41;;;;;;;27.93;24.53;;;;;;;18.53;100.00;92599.66;5021244;28;20207;-74
2023/07/03 03:49:09;;;;;;;30.50;23.87;;;;;;;18.71;100.00;92602.88;5010408;28;20249;-75
2023/07/03 03:51:34;;;;;;;30.27;24.80;;;;;;;18.70;100.00;92615.34;5009963;28;20224;-74
2023/07/03 03:54:00;;;;;;;26.13;23.30;;;;;;;18.89;100.00;92618.25;5010427;28;20184;-75
2023/07/03 03:56:25;;;;;;;30.60;24.77;;;;;;;18.62;100.00;92610.13;5009596;28;20233;-74
2023/07/03 03:58:51;;;;;;;30.33;24.77;;;;;;;18.74;100.00;92610.19;5010390;28;20184;-73
2023/07/03 04:01:16;;;;;;;30.33;25.13;;;;;;;18.68;100.00;92595.59;5009815;28;20221;-74
2023/07/03 04:03:41;;;;;;;29.47;25.33;;;;;;;19.01;100.00;92617.50;5016393;28;20229;-74
2023/07/03 04:06:08;;;;;;;31.33;24.43;;;;;;;19.06;100.00;92623.34;5012618;28;20239;-74
2023/07/03 04:08:34;;;;;;;29.57;24.40;;;;;;;19.07;100.00;92618.81;5010048;28;20212;-74
2023/07/03 04:10:59;;;;;;;31.07;23.97;;;;;;;19.04;100.00;92598.31;5012030;28;20222;-75
2023/07/03 04:13:24;;;;;;;29.67;23.80;;;;;;;19.33;100.00;92627.22;5016760;28;20198;-74
2023/07/03 04:15:53;;;;;;;28.03;23.60;;;;;;;19.31;100.00;92629.44;5015854;28;20253;-75
2023/07/03 04:18:19;;;;;;;26.10;22.50;;;;;;;19.19;100.00;92637.38;5023538;28;20185;-75
2023/07/03 04:20:45;;;;;;;28.37;24.10;;;;;;;19.03;100.00;92597.56;5016004;28;20319;-74
2023/07/03 04:23:10;;;;;;;27.13;23.70;;;;;;;19.15;100.00;92636.47;5016457;28;20186;-75
2023/07/03 04:25:36;;;;;;;25.57;22.87;;;;;;;19.34;100.00;92628.78;5016849;28;20228;-75
2023/07/03 04:28:02;;;;;;;28.30;24.20;;;;;;;19.47;100.00;92640.16;5016403;28;20279;-75
2023/07/03 04:30:27;;;;;;;26.57;23.53;;;;;;;19.55;99.63;92639.28;5018927;28;20293;-75
2023/07/03 04:32:53;;;;;;;25.90;23.10;;;;;;;19.23;100.00;92625.00;5025171;28;20197;-75
2023/07/03 04:35:19;;;;;;;26.47;23.60;;;;;;;19.87;97.55;92649.72;5015807;28;20618;-74
2023/07/03 04:37:45;;;;;;;27.47;22.50;;;;;;;20.04;95.86;92646.81;5016404;28;20240;-75
2023/07/03 04:40:12;;;;;;;27.00;24.20;;;;;;;20.28;93.53;92644.09;5028865;28;20225;-74
2023/07/03 04:42:38;;;;;;;25.75;23.08;;;;;;;19.97;95.91;92651.91;5016420;28;20191;-75
2023/07/03 04:45:06;;;;;;;25.90;23.10;;;;;;;20.40;94.73;92649.38;5017053;28;20297;-75
2023/07/03 04:47:31;;;;;;;27.57;23.00;;;;;;;20.41;92.59;92656.22;5027709;28;20229;-74
2023/07/03 04:49:58;;;;;;;23.35;20.92;;;;;;;20.43;93.04;92646.06;5015641;28;20237;-74
2023/07/03 04:52:27;;;;;;;23.67;20.25;;;;;;;20.48;92.96;92660.97;5012780;28;20207;-67
2023/07/03 04:54:53;;;;;;;22.90;20.50;;;;;;;20.41;92.04;92666.84;5012970;28;20291;-69
2023/07/03 04:57:19;;;;;;;23.60;20.52;;;;;;;20.51;92.45;92653.06;5014887;28;20280;-68
2023/07/03 04:59:44;;;;;;;22.33;20.08;;;;;;;20.73;91.24;92663.16;5014462;28;20227;-67
2023/07/03 05:02:12;;;;;;;21.38;19.13;;;;;;;20.46;92.02;92663.94;5017381;28;20195;-67
2023/07/03 05:04:37;;;;;;;22.10;19.73;;;;;;;20.98;90.36;92669.13;5013919;28;20237;-68
2023/07/03 05:07:02;;;;;;;22.50;18.63;;;;;;;20.80;89.70;92664.44;5014221;28;20202;-68
2023/07/03 05:09:28;;;;;;;26.15;20.23;;;;;;;20.82;89.55;92670.97;5014296;28;20253;-68
2023/07/03 05:11:53;;;;;;;22.65;20.17;;;;;;;21.22;87.82;92674.31;5015099;28;20194;-69
2023/07/03 05:14:19;;;;;;;22.77;20.52;;;;;;;21.95;84.72;92669.22;5013705;28;20248;-70
2023/07/03 05:16:44;;;;;;;21.10;19.13;;;;;;;22.19;82.91;92692.94;5014358;28;20213;-70
2023/07/03 05:19:10;;;;;;;21.33;19.23;;;;;;;23.20;78.08;92691.56;5014608;28;20256;-69
2023/07/03 05:21:35;;;;;;;20.33;18.35;;;;;;;23.61;75.75;92693.44;5014911;28;20189;-69
2023/07/03 05:24:02;;;;;;;20.85;18.75;;;;;;;23.52;76.63;92686.78;5011241;28;20281;-70
2023/07/03 05:26:27;;;;;;;18.92;17.08;;;;;;;24.12;72.95;92685.88;5011268;28;20235;-70
2023/07/03 05:28:53;;;;;;;21.23;18.10;;;;;;;24.89;70.34;92689.56;5012252;28;20212;-71
2023/07/03 05:31:22;;;;;;;19.27;17.35;;;;;;;23.78;74.78;92695.59;5011636;28;20223;-69
2023/07/03 05:33:47;;;;;;;19.70;17.63;;;;;;;23.19;77.90;92692.66;5014279;28;20182;-70
2023/07/03 05:36:13;;;;;;;20.45;18.40;;;;;;;23.23;78.83;92698.06;5010858;28;20302;-72
2023/07/03 05:38:38;;;;;;;20.52;18.63;;;;;;;23.08;78.41;92699.69;5013956;28;20213;-69
2023/07/03 05:41:04;;;;;;;21.30;17.92;;;;;;;25.39;70.31;92709.59;5019617;28;20285;-69
2023/07/03 05:43:29;;;;;;;19.85;17.73;;;;;;;26.47;63.81;92722.34;5010872;28;20227;-69
2023/07/03 05:45:54;;;;;;;19.48;17.40;;;;;;;28.19;57.67;92718.28;5010649;28;20233;-69
2023/07/03 05:48:20;;;;;;;18.40;16.60;;;;;;;29.73;53.77;92715.53;5011684;28;20211;-69
2023/07/03 05:50:45;;;;;;;18.20;16.42;;;;;;;31.24;48.59;92728.38;5011039;28;20238;-71
2023/07/03 05:53:11;;;;;;;17.73;16.05;;;;;;;33.39;42.73;92733.94;5011009;28;20179;-80
2023/07/03 05:55:37;;;;;;;16.90;15.25;;;;;;;32.74;44.15;92716.56;5011363;28;20231;-81
2023/07/03 05:58:03;;;;;;;16.92;15.40;;;;;;;31.44;46.00;92736.66;5011414;28;20203;-70
2023/07/03 06:00:30;;;;;;;17.08;15.32;;;;;;;31.52;47.67;92730.75;5011670;28;20235;-74
2023/07/03 06:02:57;;;;;;;18.45;16.77;;;;;;;32.32;44.51;92733.47;5016667;28;20179;-77
2023/07/03 06:05:23;;;;;;;16.85;15.35;;;;;;;32.42;44.59;92727.91;5010346;28;20232;-77
2023/07/03 06:07:49;;;;;;;18.02;16.20;;;;;;;33.29;42.26;92732.16;5011723;28;20271;-77
2023/07/03 06:10:15;;;;;;;17.48;14.70;;;;;;;34.63;38.45;92738.13;5011409;28;20295;-77
2023/07/03 06:12:41;;;;;;;14.98;13.20;;;;;;;33.28;40.86;92727.94;5010774;28;20684;-77
2023/07/03 06:15:07;;;;;;;16.35;14.95;;;;;;;33.36;40.97;92729.31;5011916;28;20235;-77
2023/07/03 06:17:32;;;;;;;16.02;14.52;;;;;;;31.89;44.11;92730.69;5018526;28;20191;-76
2023/07/03 06:19:57;;;;;;;16.25;14.60;;;;;;;34.25;40.52;92729.72;5015383;28;20231;-77
2023/07/03 06:22:23;;;;;;;15.57;14.07;;;;;;;32.89;41.71;92722.50;5016673;28;20206;-76
2023/07/03 06:24:49;;;;;;;15.23;13.82;;;;;;;34.32;39.82;92736.91;5011506;28;20244;-77
2023/07/03 06:27:15;;;;;;;16.77;14.52;;;;;;;34.36;39.30;92735.66;5012712;28;20192;-77
2023/07/03 06:29:41;;;;;;;16.20;14.32;;;;;;;33.46;39.88;92725.66;5011687;28;20243;-77
2023/07/03 06:32:08;;;;;;;15.52;14.02;;;;;;;32.78;42.59;92719.94;5011854;28;20192;-77
2023/07/03 06:34:33;;;;;;;16.05;14.45;;;;;;;34.04;38.92;92735.66;5010226;28;20262;-76
2023/07/03 06:37:00;;;;;;;16.38;14.85;;;;;;;35.16;36.99;92738.28;5016122;28;20192;-77
2023/07/03 06:39:26;;;;;;;14.73;13.32;;;;;;;33.82;40.23;92740.72;5021836;28;20182;-77
2023/07/03 06:41:51;;;;;;;16.00;14.57;;;;;;;33.39;40.70;92734.69;5013796;28;20202;-77
2023/07/03 06:44:19;;;;;;;16.15;14.60;;;;;;;33.57;39.60;92739.75;5012144;28;20194;-76
2023/07/03 06:46:44;;;;;;;16.13;14.65;;;;;;;33.70;40.17;92733.25;5011546;28;20190;-77
2023/07/03 06:49:10;;;;;;;17.15;15.45;;;;;;;35.39;37.82;92746.22;5011163;28;20211;-78
2023/07/03 06:51:36;;;;;;;15.48;14.07;;;;;;;34.24;39.73;92736.34;5011450;28;20191;-76
2023/07/03 06:54:03;;;;;;;18.85;15.00;;;;;;;31.38;45.75;92741.00;5012336;28;20184;-74
2023/07/03 06:56:29;;;;;;;17.20;15.50;;;;;;;29.92;49.11;92728.47;5010845;28;20238;-75
2023/07/03 06:58:54;;;;;;;17.10;15.50;;;;;;;26.50;62.04;92724.25;5011302;28;20194;-74
2023/07/03 07:01:23;;;;;;;16.67;15.18;;;;;;;26.49;63.54;92704.75;5011026;28;20239;-80
2023/07/03 07:03:48;;;;;;;18.35;16.38;;;;;;;25.05;68.96;92718.75;5010014;28;20217;-75
2023/07/03 07:06:22;;;;;;;19.38;17.00;;;;;;;24.76;71.35;92716.88;5010372;28;20825;-75
2023/07/03 07:08:49;;;;;;;20.77;18.73;;;;;;;25.15;70.02;92708.16;5011076;28;20211;-74
2023/07/03 07:11:20;;;;;;;19.92;18.02;;;;;;;24.51;71.40;92713.88;5012293;28;20219;-77
2023/07/03 07:13:47;;;;;;;20.98;18.65;;;;;;;24.69;71.58;92714.09;5010750;28;20274;-75
2023/07/03 07:16:15;;;;;;;22.55;19.27;;;;;;;25.16;69.27;92709.72;5011267;28;20226;-75
2023/07/03 07:18:41;;;;;;;20.75;18.60;;;;;;;25.38;70.84;92709.97;5019511;28;20203;-75
2023/07/03 07:21:08;;;;;;;22.52;20.15;;;;;;;25.01;71.25;92710.69;5008758;28;20250;-68
2023/07/03 07:23:34;;;;;;;19.10;16.88;;;;;;;25.01;72.77;92715.28;5009074;28;20222;-67
2023/07/03 07:26:00;;;;;;;21.40;17.35;;;;;;;25.27;69.91;92702.59;5009960;28;20239;-66
2023/07/03 07:28:25;;;;;;;19.73;17.83;;;;;;;24.81;71.00;92719.97;5009952;28;20211;-67
2023/07/03 07:30:50;;;;;;;18.98;17.17;;;;;;;24.51;72.29;92707.75;5010419;28;20946;-68
2023/07/03 07:33:16;;;;;;;19.60;17.50;;;;;;;24.68;71.63;92707.22;5012250;28;20282;-68
2023/07/03 07:35:43;;;;;;;19.50;17.50;;;;;;;24.90;71.40;92719.72;5009830;28;20658;-67
2023/07/03 07:38:13;;;;;;;19.85;17.25;;;;;;;24.66;71.84;92712.94;5014742;28;20217;-68
2023/07/03 07:40:38;;;;;;;18.08;16.33;;;;;;;24.69;70.29;92711.44;5023313;28;20231;-68
2023/07/03 07:43:04;;;;;;;17.02;15.43;;;;;;;24.81;68.28;92721.91;5009409;28;20190;-69
2023/07/03 07:45:30;;;;;;;17.75;16.00;;;;;;;24.89;68.35;92724.28;5009304;28;20226;-69
2023/07/03 07:47:56;;;;;;;17.13;15.40;;;;;;;24.76;68.54;92722.97;5010130;28;20221;-68
2023/07/03 07:50:22;;;;;;;16.25;14.57;;;;;;;24.65;71.18;92727.41;5009966;28;20232;-68
2023/07/03 07:52:47;;;;;;;16.95;15.35;;;;;;;24.32;69.99;92731.88;5014201;28;20207;-69
2023/07/03 07:55:13;;;;;;;18.00;16.08;;;;;;;24.58;70.25;92721.19;5009505;28;20302;-68
2023/07/03 07:57:39;;;;;;;17.15;15.52;;;;;;;24.89;67.81;92739.53;5010076;28;20218;-69
2023/07/03 08:00:06;;;;;;;18.20;16.38;;;;;;;25.16;67.01;92728.44;5009688;28;20223;-69
2023/07/03 08:02:32;;;;;;;17.73;16.05;;;;;;;25.38;65.58;92737.47;5009913;28;20201;-69
2023/07/03 08:04:57;;;;;;;17.73;15.93;;;;;;;25.15;66.69;92744.81;5008658;28;20287;-68
2023/07/03 08:07:23;;;;;;;19.00;17.15;;;;;;;25.35;66.86;92738.19;5013320;28;20232;-69
2023/07/03 08:09:48;;;;;;;17.50;15.77;;;;;;;25.77;65.23;92733.25;5010004;28;20242;-69
2023/07/03 08:12:13;;;;;;;17.33;15.82;;;;;;;25.00;68.23;92743.09;5009858;28;20213;-69
2023/07/03 08:14:39;;;;;;;19.50;17.40;;;;;;;25.02;67.71;92743.53;5013697;28;20278;-68
2023/07/03 08:17:04;;;;;;;16.27;14.68;;;;;;;25.32;66.95;92754.94;5017126;28;20220;-68
2023/07/03 08:19:30;;;;;;;17.35;15.75;;;;;;;25.61;66.76;92746.09;5009605;28;20246;-68
2023/07/03 08:21:55;;;;;;;18.13;16.30;;;;;;;25.64;64.69;92750.72;5009254;28;20214;-68
2023/07/03 08:24:21;;;;;;;16.48;14.90;;;;;;;25.49;66.54;92754.38;5008993;28;20204;-70
2023/07/03 08:26:49;;;;;;;17.00;15.35;;;;;;;25.59;66.62;92752.97;5011716;28;20199;-69
2023/07/03 08:29:15;;;;;;;17.17;15.52;;;;;;;25.86;63.52;92738.28;5009314;28;20257;-68
2023/07/03 08:31:40;;;;;;;17.17;15.68;;;;;;;26.04;62.63;92740.00;5010057;28;20195;-69
2023/07/03 08:34:06;;;;;;;16.63;15.02;;;;;;;25.76;60.08;92755.78;5010076;28;20202;-69
2023/07/03 08:36:31;;;;;;;16.92;15.25;;;;;;;26.09;61.01;92744.25;5012336;28;20234;-69
2023/07/03 08:38:57;;;;;;;16.08;14.60;;;;;;;26.41;62.25;92756.72;5010482;28;20288;-69
2023/07/03 08:41:22;;;;;;;17.15;14.65;;;;;;;26.60;60.84;92756.47;5009400;28;21746;-69
2023/07/03 08:43:54;;;;;;;16.00;14.43;;;;;;;25.61;62.42;92756.78;5008792;28;20243;-69
2023/07/03 08:46:23;;;;;;;19.48;14.35;;;;;;;25.63;63.26;92759.88;5009067;28;20231;-69
2023/07/03 08:48:52;;;;;;;15.13;13.85;;;;;;;26.19;61.74;92757.72;5008551;28;20213;-70
2023/07/03 08:51:21;;;;;;;16.50;14.90;;;;;;;25.67;61.39;92765.25;5012316;28;20290;-69
2023/07/03 08:53:52;;;;;;;16.05;14.45;;;;;;;25.79;61.91;92763.06;5008544;28;20215;-69
2023/07/03 08:56:22;;;;;;;16.20;14.60;;;;;;;26.08;62.98;92754.19;5015634;28;20231;-69
2023/07/03 08:58:51;;;;;;;15.98;14.55;;;;;;;26.67;59.66;92767.25;5012186;28;20187;-69
2023/07/03 09:01:20;;;;;;;15.40;14.02;;;;;;;26.83;57.85;92766.19;5012843;28;20223;-68
2023/07/03 09:04:01;;;;;;;14.50;13.25;;;;;;;26.25;60.21;92758.91;5012897;28;20236;-70
2023/07/03 09:06:50;;;;;;;15.95;14.27;;;;;;;25.68;61.64;92756.88;5013057;28;20241;-69
2023/07/03 09:09:25;;;;;;;16.35;14.80;;;;;;;26.15;60.90;92756.16;5012583;28;20245;-71
2023/07/03 09:12:06;;;;;;;15.57;14.18;;;;;;;25.27;62.28;92750.69;5013321;28;20241;-69
2023/07/03 09:14:40;;;;;;;15.35;13.90;;;;;;;;;;5015764;28;20246;-71
2023/07/03 09:17:11;;;;;;;15.40;14.00;;;;;;;24.59;65.00;92754.78;5006919;28;20233;-70
2023/07/03 09:19:40;;;;;;;15.23;13.85;;;;;;;24.71;62.56;92762.59;5012678;28;20230;-70
2023/07/03 09:22:14;;;;;;;16.00;14.68;;;;;;;25.34;61.81;92758.03;5014147;28;20175;-71
2023/07/03 09:24:43;;;;;;;15.90;14.40;;;;;;;25.56;61.20;92761.72;5013895;28;20291;-70
2023/07/03 09:27:19;;;;;;;16.38;14.88;;;;;;;25.89;60.77;92765.09;5009041;28;20186;-71
2023/07/03 09:29:45;;;;;;;15.40;13.90;;;;;;;25.16;61.06;92754.38;5012204;28;20245;-70
2023/07/03 09:32:20;;;;;;;16.83;15.43;;;;;;;25.37;63.68;92759.97;5013062;28;20207;-71
2023/07/03 09:35:14;;;;;;;15.90;14.43;;;;;;;25.76;63.26;92768.41;5011911;28;20722;-71
2023/07/03 09:37:43;;;;;;;15.98;14.57;;;;;;;25.84;63.26;92770.75;5016642;28;20259;-71
2023/07/03 09:40:24;;;;;;;16.35;14.77;;;;;;;25.37;60.94;92764.56;5017984;28;20235;-72
2023/07/03 09:42:50;;;;;;;15.73;14.27;;;;;;;26.47;58.79;92770.53;5012738;28;20202;-71
2023/07/03 09:45:18;;;;;;;14.55;13.25;;;;;;;26.60;55.66;92769.84;5011205;28;20223;-71
2023/07/03 09:48:15;;;;;;;17.17;15.73;;;;;;;25.93;59.54;92763.19;5012306;28;20238;-71
2023/07/03 09:50:41;;;;;;;14.55;13.23;;;;;;;26.10;58.11;92753.81;5002714;28;20241;-71
2023/07/03 09:53:15;;;;;;;15.65;14.15;;;;;;;25.91;57.88;92764.72;5012292;28;20259;-72
2023/07/03 09:55:42;;;;;;;14.88;13.50;;;;;;;25.82;58.00;92750.88;5018473;28;20248;-72
2023/07/03 09:58:13;;;;;;;14.38;12.98;;;;;;;26.09;57.07;92760.28;5010960;28;20683;-70
2023/07/03 10:00:47;;;;;;;15.45;13.93;;;;;;;25.79;60.35;92746.28;5003847;28;20306;-70
2023/07/03 10:03:13;;;;;;;15.65;14.23;;;;;;;25.38;61.07;92748.16;5011823;28;20218;-70
2023/07/03 10:05:42;;;;;;;17.00;15.02;;;;;;;25.85;62.44;92753.59;5011789;28;20238;-78
2023/07/03 10:08:09;;;;;;;15.50;14.10;;;;;;;25.51;58.43;92754.78;5011290;28;20226;-77
2023/07/03 10:10:34;;;;;;;15.13;13.82;;;;;;;25.42;58.05;92754.31;5011144;28;20243;-77
2023/07/03 10:13:18;;;;;;;14.70;13.38;;;;;;;25.48;59.63;92757.44;5012930;28;20198;-77
2023/07/03 10:15:44;;;;;;;17.52;13.75;;;;;;;26.02;58.07;92749.56;5012666;28;20235;-77
2023/07/03 10:18:19;;;;;;;15.73;14.27;;;;;;;26.34;59.21;92758.56;5016134;28;20190;-77
2023/07/03 10:20:47;;;;;;;15.95;14.35;;;;;;;25.54;57.80;92745.25;5012464;28;20245;-78
2023/07/03 10:23:25;;;;;;;14.60;13.10;;;;;;;25.40;56.99;92748.56;5010722;28;20191;-79
2023/07/03 10:25:56;;;;;;;13.27;12.07;;;;;;;26.49;56.09;92749.53;5022057;28;20238;-71
2023/07/03 10:28:45;;;;;;;13.63;12.43;;;;;;;26.05;57.43;92752.25;5011444;28;20253;-72
2023/07/03 10:31:22;;;;;;;14.48;13.18;;;;;;;26.47;56.01;92755.25;4998463;28;20227;-72
2023/07/03 10:33:50;;;;;;;14.23;12.77;;;;;;;26.26;53.83;92754.31;5008743;28;20190;-71
2023/07/03 10:36:25;;;;;;;14.32;13.05;;;;;;;26.58;55.28;92750.69;4999837;28;20223;-71
2023/07/03 10:39:00;;;;;;;14.65;13.38;;;;;;;26.68;55.32;92749.25;5013948;28;20187;-72
2023/07/03 10:41:35;;;;;;;14.70;13.25;;;;;;;26.91;52.53;92746.31;5015776;28;20330;-71
2023/07/03 10:44:31;;;;;;;16.45;12.40;;;;;;;26.96;52.48;92752.09;5009565;28;20178;-72
2023/07/03 10:47:08;;;;;;;13.32;12.23;;;;;;;26.51;54.77;92749.91;5010171;28;20215;-71
2023/07/03 10:49:37;;;;;;;12.95;11.85;;;;;;;26.21;58.63;92750.06;5013720;28;20253;-71
2023/07/03 10:52:05;;;;;;;15.32;13.88;;;;;;;26.19;58.26;92747.03;5010724;28;20250;-71
2023/07/03 10:54:53;;;;;;;14.68;13.50;;;;;;;26.24;57.86;92749.31;5010494;28;20231;-70
2023/07/03 10:57:30;;;;;;;14.38;13.07;;;;;;;26.72;54.45;92748.13;5008078;28;20206;-69
2023/07/03 11:00:05;;;;;;;14.88;13.48;;;;;;;26.50;56.70;92735.75;5009197;28;20230;-70
2023/07/03 11:03:11;;;;;;;14.38;12.95;;;;;;;26.95;56.43;92741.75;5010044;28;20179;-70
2023/07/03 11:05:51;;;;;;;13.95;12.75;;;;;;;26.72;57.11;92742.78;5005966;28;21409;-70
2023/07/03 11:09:05;;;;;;;14.10;12.80;;;;;;;26.62;55.34;92746.16;5003428;28;20207;-70
2023/07/03 11:11:42;;;;;;;14.45;12.45;;;;;;;26.37;54.56;92734.50;5020587;28;20223;-70
2023/07/03 11:14:25;;;;;;;14.30;13.00;;;;;;;26.94;54.00;92745.56;5009084;28;20226;-72
2023/07/03 11:17:01;;;;;;;13.52;12.30;;;;;;;27.20;54.69;92742.63;5009870;28;20187;-72
2023/07/03 11:19:30;;;;;;;14.43;13.13;;;;;;;27.22;53.68;92737.66;5008897;28;20229;-72
2023/07/03 11:22:15;;;;;;;13.80;12.70;;;;;;;27.18;53.06;92740.31;5009198;28;20179;-71